<?xml version="1.0" encoding="UTF-8" standalone="no" ?>
<gpx xmlns="http://www.topografix.com/GPX/1/1" xmlns:xsi="http://www.w3.org/2001/XMLSchema-instance" xsi:schemaLocation="http://www.topografix.com/GPX/1/1 http://www.topografix.com/GPX/1/1/gpx.xsd" version="1.1" creator="VisuGPX - https://www.visugpx.com">
  <metadata>
    <name>Causse Noir - chaos de Montpellier le Vieux</name>
    <desc><![CDATA[2017-08 - chaos de Montpellier le Vieux

[b]album[/b] : [url]https://goo.gl/photos/73KxfMwj9TBcYirf9[/url]
[img]https://1.bp.blogspot.com/-RCFFdryFaig/WZsJpeimHLI/AAAAAAAAXdM/3FjErxT9JesQItkitY6cy32-j3xtR-wcgCLcBGAs/s1600/2017-08-19_montpellier-le-vieux.JPG[/img]
[b]Idées de randonnées dans la même région[/b]
Parcours : [url]https://www.visugpx.com/membres/24856/causses/grands-causses/[/url]
Photos : [url]https://jcvertygo.blogspot.com/p/grands-causses.html[/url]]]></desc>
  </metadata>
  <trk>
    <name><![CDATA[Causse Noir - chaos de Montpellier le Vieux_1]]></name>
    <trkseg>
      <trkpt lat="44.13785" lon="3.2036">
        <ele>830.8</ele>
        <time>2017-08-19T13:22:08Z</time>
      </trkpt>
      <trkpt lat="44.13783" lon="3.20342">
        <ele>794.60221459636</ele>
        <time>2017-08-19T13:22:13Z</time>
      </trkpt>
      <trkpt lat="44.13778" lon="3.20324">
        <ele>794.14369625745</ele>
        <time>2017-08-19T13:22:28Z</time>
      </trkpt>
      <trkpt lat="44.13775" lon="3.20322">
        <ele>794.14369625745</ele>
        <time>2017-08-19T13:22:33Z</time>
      </trkpt>
      <trkpt lat="44.13749" lon="3.20316">
        <ele>796.50508185148</ele>
        <time>2017-08-19T13:23:42Z</time>
      </trkpt>
      <trkpt lat="44.13743" lon="3.20314">
        <ele>796.50508185148</ele>
        <time>2017-08-19T13:23:45Z</time>
      </trkpt>
      <trkpt lat="44.13718" lon="3.20294">
        <ele>800.35429385019</ele>
        <time>2017-08-19T13:24:19Z</time>
      </trkpt>
      <trkpt lat="44.13664" lon="3.20284">
        <ele>804.48713676074</ele>
        <time>2017-08-19T13:25:25Z</time>
      </trkpt>
      <trkpt lat="44.13656" lon="3.2027">
        <ele>808.16001869819</ele>
        <time>2017-08-19T13:25:38Z</time>
      </trkpt>
      <trkpt lat="44.13638" lon="3.2026">
        <ele>811.37229066289</ele>
        <time>2017-08-19T13:25:57Z</time>
      </trkpt>
      <trkpt lat="44.13634" lon="3.20261">
        <ele>811.37229066289</ele>
        <time>2017-08-19T13:26:07Z</time>
      </trkpt>
      <trkpt lat="44.13612" lon="3.20239">
        <ele>814.1334803139</ele>
        <time>2017-08-19T13:26:33Z</time>
      </trkpt>
      <trkpt lat="44.136" lon="3.20207">
        <ele>814.62623824871</ele>
        <time>2017-08-19T13:27:10Z</time>
      </trkpt>
      <trkpt lat="44.13598" lon="3.20205">
        <ele>814.62623824871</ele>
        <time>2017-08-19T13:27:11Z</time>
      </trkpt>
      <trkpt lat="44.1359" lon="3.20204">
        <ele>814.6167001595</ele>
        <time>2017-08-19T13:27:42Z</time>
      </trkpt>
      <trkpt lat="44.13582" lon="3.20199">
        <ele>814.6167001595</ele>
        <time>2017-08-19T13:27:42Z</time>
      </trkpt>
      <trkpt lat="44.13575" lon="3.20198">
        <ele>814.28160040407</ele>
        <time>2017-08-19T13:27:53Z</time>
      </trkpt>
      <trkpt lat="44.13563" lon="3.20204">
        <ele>813.48104691161</ele>
        <time>2017-08-19T13:28:09Z</time>
      </trkpt>
      <trkpt lat="44.13563" lon="3.20204">
        <ele>813.48104691161</ele>
        <time>2017-08-19T13:28:09Z</time>
      </trkpt>
      <trkpt lat="44.13548" lon="3.20216">
        <ele>812.36722749953</ele>
        <time>2017-08-19T13:28:41Z</time>
      </trkpt>
      <trkpt lat="44.13545" lon="3.20216">
        <ele>812.36722749953</ele>
        <time>2017-08-19T13:28:43Z</time>
      </trkpt>
      <trkpt lat="44.13544" lon="3.20216">
        <ele>812.36722749953</ele>
        <time>2017-08-19T13:28:44Z</time>
      </trkpt>
      <trkpt lat="44.13535" lon="3.20214">
        <ele>811.1942505829</ele>
        <time>2017-08-19T13:29:00Z</time>
      </trkpt>
      <trkpt lat="44.13525" lon="3.2021">
        <ele>809.87882422539</ele>
        <time>2017-08-19T13:29:06Z</time>
      </trkpt>
      <trkpt lat="44.13494" lon="3.20264">
        <ele>809.01764302098</ele>
        <time>2017-08-19T13:30:26Z</time>
      </trkpt>
      <trkpt lat="44.13494" lon="3.20276">
        <ele>809.01764302098</ele>
        <time>2017-08-19T13:30:46Z</time>
      </trkpt>
      <trkpt lat="44.13494" lon="3.20277">
        <ele>808.14978685244</ele>
        <time>2017-08-19T13:30:48Z</time>
      </trkpt>
      <trkpt lat="44.13492" lon="3.20279">
        <ele>808.14978685244</ele>
        <time>2017-08-19T13:30:53Z</time>
      </trkpt>
      <trkpt lat="44.13495" lon="3.20335">
        <ele>808.06867232912</ele>
        <time>2017-08-19T13:32:04Z</time>
      </trkpt>
      <trkpt lat="44.13495" lon="3.20337">
        <ele>808.06867232912</ele>
        <time>2017-08-19T13:32:04Z</time>
      </trkpt>
      <trkpt lat="44.13496" lon="3.20345">
        <ele>808.06867232912</ele>
        <time>2017-08-19T13:32:15Z</time>
      </trkpt>
      <trkpt lat="44.13492" lon="3.20349">
        <ele>808.32658464453</ele>
        <time>2017-08-19T13:32:45Z</time>
      </trkpt>
      <trkpt lat="44.13494" lon="3.20365">
        <ele>808.82109183649</ele>
        <time>2017-08-19T13:32:56Z</time>
      </trkpt>
      <trkpt lat="44.13494" lon="3.20369">
        <ele>808.82109183649</ele>
        <time>2017-08-19T13:33:05Z</time>
      </trkpt>
      <trkpt lat="44.13487" lon="3.20412">
        <ele>810.49256826453</ele>
        <time>2017-08-19T13:35:11Z</time>
      </trkpt>
      <trkpt lat="44.1349" lon="3.20423">
        <ele>810.49256826453</ele>
        <time>2017-08-19T13:37:15Z</time>
      </trkpt>
      <trkpt lat="44.13478" lon="3.20429">
        <ele>811.96100360065</ele>
        <time>2017-08-19T13:37:41Z</time>
      </trkpt>
      <trkpt lat="44.13479" lon="3.20432">
        <ele>811.96100360065</ele>
        <time>2017-08-19T13:37:41Z</time>
      </trkpt>
      <trkpt lat="44.13452" lon="3.20456">
        <ele>812.99659634926</ele>
        <time>2017-08-19T13:38:54Z</time>
      </trkpt>
      <trkpt lat="44.13449" lon="3.20456">
        <ele>812.99659634926</ele>
        <time>2017-08-19T13:38:54Z</time>
      </trkpt>
      <trkpt lat="44.13442" lon="3.20464">
        <ele>813.82658956256</ele>
        <time>2017-08-19T13:39:18Z</time>
      </trkpt>
      <trkpt lat="44.13444" lon="3.20471">
        <ele>813.82658956256</ele>
        <time>2017-08-19T13:39:33Z</time>
      </trkpt>
      <trkpt lat="44.13443" lon="3.20471">
        <ele>813.82658956256</ele>
        <time>2017-08-19T13:39:54Z</time>
      </trkpt>
      <trkpt lat="44.13451" lon="3.20463">
        <ele>814.27013646122</ele>
        <time>2017-08-19T13:40:40Z</time>
      </trkpt>
      <trkpt lat="44.13454" lon="3.20456">
        <ele>814.27013646122</ele>
        <time>2017-08-19T13:40:40Z</time>
      </trkpt>
      <trkpt lat="44.13458" lon="3.20454">
        <ele>814.74223202875</ele>
        <time>2017-08-19T13:40:57Z</time>
      </trkpt>
      <trkpt lat="44.13462" lon="3.2045">
        <ele>814.74223202875</ele>
        <time>2017-08-19T13:40:57Z</time>
      </trkpt>
      <trkpt lat="44.13488" lon="3.20428">
        <ele>815.03960395916</ele>
        <time>2017-08-19T13:42:03Z</time>
      </trkpt>
      <trkpt lat="44.13488" lon="3.20428">
        <ele>815.03960395916</ele>
        <time>2017-08-19T13:42:08Z</time>
      </trkpt>
      <trkpt lat="44.13476" lon="3.20399">
        <ele>816.09507365714</ele>
        <time>2017-08-19T13:43:30Z</time>
      </trkpt>
      <trkpt lat="44.13474" lon="3.204">
        <ele>816.09507365714</ele>
        <time>2017-08-19T13:43:33Z</time>
      </trkpt>
      <trkpt lat="44.13472" lon="3.20403">
        <ele>816.09507365714</ele>
        <time>2017-08-19T13:43:48Z</time>
      </trkpt>
      <trkpt lat="44.13469" lon="3.20414">
        <ele>817.15011055558</ele>
        <time>2017-08-19T13:44:11Z</time>
      </trkpt>
      <trkpt lat="44.13464" lon="3.20433">
        <ele>818.16079030577</ele>
        <time>2017-08-19T13:44:37Z</time>
      </trkpt>
      <trkpt lat="44.13476" lon="3.20415">
        <ele>820.04582337186</ele>
        <time>2017-08-19T13:47:27Z</time>
      </trkpt>
      <trkpt lat="44.13474" lon="3.20406">
        <ele>820.04582337186</ele>
        <time>2017-08-19T13:47:28Z</time>
      </trkpt>
      <trkpt lat="44.1348" lon="3.20399">
        <ele>821.55607647984</ele>
        <time>2017-08-19T13:47:53Z</time>
      </trkpt>
      <trkpt lat="44.13467" lon="3.20436">
        <ele>822.55046312071</ele>
        <time>2017-08-19T13:49:08Z</time>
      </trkpt>
      <trkpt lat="44.13415" lon="3.20479">
        <ele>822.64586912705</ele>
        <time>2017-08-19T13:51:00Z</time>
      </trkpt>
      <trkpt lat="44.13415" lon="3.20479">
        <ele>822.64586912705</ele>
        <time>2017-08-19T13:51:01Z</time>
      </trkpt>
      <trkpt lat="44.13402" lon="3.20461">
        <ele>821.91474329139</ele>
        <time>2017-08-19T13:51:28Z</time>
      </trkpt>
      <trkpt lat="44.1334" lon="3.20449">
        <ele>820.10217431617</ele>
        <time>2017-08-19T13:53:15Z</time>
      </trkpt>
      <trkpt lat="44.13323" lon="3.20461">
        <ele>817.95472502365</ele>
        <time>2017-08-19T13:54:31Z</time>
      </trkpt>
      <trkpt lat="44.13318" lon="3.20461">
        <ele>817.95472502365</ele>
        <time>2017-08-19T13:54:31Z</time>
      </trkpt>
      <trkpt lat="44.13314" lon="3.20474">
        <ele>815.82633600693</ele>
        <time>2017-08-19T13:54:50Z</time>
      </trkpt>
      <trkpt lat="44.13287" lon="3.20485">
        <ele>813.19805086488</ele>
        <time>2017-08-19T13:55:58Z</time>
      </trkpt>
      <trkpt lat="44.13286" lon="3.2049">
        <ele>813.19805086488</ele>
        <time>2017-08-19T13:56:03Z</time>
      </trkpt>
      <trkpt lat="44.13267" lon="3.20484">
        <ele>809.80952991298</ele>
        <time>2017-08-19T13:56:29Z</time>
      </trkpt>
      <trkpt lat="44.1326" lon="3.20481">
        <ele>809.80952991298</ele>
        <time>2017-08-19T13:56:34Z</time>
      </trkpt>
      <trkpt lat="44.13252" lon="3.20485">
        <ele>806.12627926007</ele>
        <time>2017-08-19T13:57:17Z</time>
      </trkpt>
      <trkpt lat="44.13263" lon="3.20509">
        <ele>802.35964811986</ele>
        <time>2017-08-19T13:57:17Z</time>
      </trkpt>
      <trkpt lat="44.13263" lon="3.20505">
        <ele>802.35964811986</ele>
        <time>2017-08-19T13:57:59Z</time>
      </trkpt>
      <trkpt lat="44.13193" lon="3.20487">
        <ele>797.58203079743</ele>
        <time>2017-08-19T14:00:05Z</time>
      </trkpt>
      <trkpt lat="44.1319" lon="3.20489">
        <ele>797.58203079743</ele>
        <time>2017-08-19T14:00:08Z</time>
      </trkpt>
      <trkpt lat="44.13157" lon="3.20497">
        <ele>792.97031716813</ele>
        <time>2017-08-19T14:00:35Z</time>
      </trkpt>
      <trkpt lat="44.13149" lon="3.20492">
        <ele>788.627708949</ele>
        <time>2017-08-19T14:01:04Z</time>
      </trkpt>
      <trkpt lat="44.13128" lon="3.20494">
        <ele>784.03827008193</ele>
        <time>2017-08-19T14:01:44Z</time>
      </trkpt>
      <trkpt lat="44.13119" lon="3.20535">
        <ele>778.59756737526</ele>
        <time>2017-08-19T14:02:48Z</time>
      </trkpt>
      <trkpt lat="44.13126" lon="3.20545">
        <ele>773.16852991409</ele>
        <time>2017-08-19T14:03:04Z</time>
      </trkpt>
      <trkpt lat="44.13126" lon="3.20549">
        <ele>773.16852991409</ele>
        <time>2017-08-19T14:03:05Z</time>
      </trkpt>
      <trkpt lat="44.13126" lon="3.2055">
        <ele>773.16852991409</ele>
        <time>2017-08-19T14:03:05Z</time>
      </trkpt>
      <trkpt lat="44.13139" lon="3.20592">
        <ele>767.72937683265</ele>
        <time>2017-08-19T14:03:45Z</time>
      </trkpt>
      <trkpt lat="44.13151" lon="3.20609">
        <ele>762.68036754711</ele>
        <time>2017-08-19T14:04:04Z</time>
      </trkpt>
      <trkpt lat="44.13155" lon="3.20611">
        <ele>762.68036754711</ele>
        <time>2017-08-19T14:04:11Z</time>
      </trkpt>
      <trkpt lat="44.13155" lon="3.20616">
        <ele>762.68036754711</ele>
        <time>2017-08-19T14:04:20Z</time>
      </trkpt>
      <trkpt lat="44.13164" lon="3.20624">
        <ele>758.0126924928</ele>
        <time>2017-08-19T14:04:52Z</time>
      </trkpt>
      <trkpt lat="44.13165" lon="3.20624">
        <ele>758.0126924928</ele>
        <time>2017-08-19T14:05:00Z</time>
      </trkpt>
      <trkpt lat="44.13178" lon="3.20648">
        <ele>753.26169529277</ele>
        <time>2017-08-19T14:05:19Z</time>
      </trkpt>
      <trkpt lat="44.13166" lon="3.20652">
        <ele>748.90245189739</ele>
        <time>2017-08-19T14:05:33Z</time>
      </trkpt>
      <trkpt lat="44.13148" lon="3.2065">
        <ele>744.88769574664</ele>
        <time>2017-08-19T14:06:00Z</time>
      </trkpt>
      <trkpt lat="44.13141" lon="3.20651">
        <ele>744.88769574664</ele>
        <time>2017-08-19T14:06:00Z</time>
      </trkpt>
      <trkpt lat="44.13133" lon="3.20655">
        <ele>741.32197672496</ele>
        <time>2017-08-19T14:06:09Z</time>
      </trkpt>
      <trkpt lat="44.13132" lon="3.20655">
        <ele>741.32197672496</ele>
        <time>2017-08-19T14:06:10Z</time>
      </trkpt>
      <trkpt lat="44.13082" lon="3.20661">
        <ele>737.99761316065</ele>
        <time>2017-08-19T14:06:54Z</time>
      </trkpt>
      <trkpt lat="44.1306" lon="3.20649">
        <ele>734.63198588235</ele>
        <time>2017-08-19T14:07:45Z</time>
      </trkpt>
      <trkpt lat="44.1302" lon="3.20638">
        <ele>730.53048425241</ele>
        <time>2017-08-19T14:08:23Z</time>
      </trkpt>
      <trkpt lat="44.13009" lon="3.20635">
        <ele>726.76452097592</ele>
        <time>2017-08-19T14:08:35Z</time>
      </trkpt>
      <trkpt lat="44.13007" lon="3.20636">
        <ele>726.76452097592</ele>
        <time>2017-08-19T14:08:38Z</time>
      </trkpt>
      <trkpt lat="44.13003" lon="3.20637">
        <ele>726.76452097592</ele>
        <time>2017-08-19T14:08:43Z</time>
      </trkpt>
      <trkpt lat="44.12989" lon="3.20651">
        <ele>723.07515464892</ele>
        <time>2017-08-19T14:09:08Z</time>
      </trkpt>
      <trkpt lat="44.12988" lon="3.20657">
        <ele>723.07515464892</ele>
        <time>2017-08-19T14:09:33Z</time>
      </trkpt>
      <trkpt lat="44.12981" lon="3.20659">
        <ele>719.5075244775</ele>
        <time>2017-08-19T14:09:48Z</time>
      </trkpt>
      <trkpt lat="44.1298" lon="3.2066">
        <ele>719.5075244775</ele>
        <time>2017-08-19T14:10:07Z</time>
      </trkpt>
      <trkpt lat="44.12977" lon="3.20646">
        <ele>716.50339184185</ele>
        <time>2017-08-19T14:11:17Z</time>
      </trkpt>
      <trkpt lat="44.12967" lon="3.20657">
        <ele>713.91706312973</ele>
        <time>2017-08-19T14:11:34Z</time>
      </trkpt>
      <trkpt lat="44.12967" lon="3.20659">
        <ele>713.91706312973</ele>
        <time>2017-08-19T14:11:39Z</time>
      </trkpt>
      <trkpt lat="44.12961" lon="3.20668">
        <ele>711.8058983931</ele>
        <time>2017-08-19T14:11:43Z</time>
      </trkpt>
      <trkpt lat="44.1296" lon="3.2067">
        <ele>711.8058983931</ele>
        <time>2017-08-19T14:11:48Z</time>
      </trkpt>
      <trkpt lat="44.1296" lon="3.20676">
        <ele>711.8058983931</ele>
        <time>2017-08-19T14:12:18Z</time>
      </trkpt>
      <trkpt lat="44.12959" lon="3.20679">
        <ele>711.8058983931</ele>
        <time>2017-08-19T14:12:23Z</time>
      </trkpt>
      <trkpt lat="44.1296" lon="3.20686">
        <ele>709.7196378837</ele>
        <time>2017-08-19T14:12:53Z</time>
      </trkpt>
      <trkpt lat="44.12963" lon="3.20687">
        <ele>709.7196378837</ele>
        <time>2017-08-19T14:12:58Z</time>
      </trkpt>
      <trkpt lat="44.12964" lon="3.20692">
        <ele>709.7196378837</ele>
        <time>2017-08-19T14:13:08Z</time>
      </trkpt>
      <trkpt lat="44.12941" lon="3.20705">
        <ele>708.28996061378</ele>
        <time>2017-08-19T14:13:58Z</time>
      </trkpt>
      <trkpt lat="44.12922" lon="3.20724">
        <ele>707.16955762085</ele>
        <time>2017-08-19T14:14:23Z</time>
      </trkpt>
      <trkpt lat="44.12881" lon="3.20724">
        <ele>706.34656151501</ele>
        <time>2017-08-19T14:15:08Z</time>
      </trkpt>
      <trkpt lat="44.12867" lon="3.20703">
        <ele>705.79464982643</ele>
        <time>2017-08-19T14:16:04Z</time>
      </trkpt>
      <trkpt lat="44.12867" lon="3.207">
        <ele>705.79464982643</ele>
        <time>2017-08-19T14:16:04Z</time>
      </trkpt>
      <trkpt lat="44.12867" lon="3.20676">
        <ele>705.38676868063</ele>
        <time>2017-08-19T14:16:41Z</time>
      </trkpt>
      <trkpt lat="44.12854" lon="3.20652">
        <ele>705.09306393073</ele>
        <time>2017-08-19T14:17:07Z</time>
      </trkpt>
      <trkpt lat="44.12854" lon="3.20652">
        <ele>705.09306393073</ele>
        <time>2017-08-19T14:17:08Z</time>
      </trkpt>
      <trkpt lat="44.12852" lon="3.20655">
        <ele>705.09306393073</ele>
        <time>2017-08-19T14:17:54Z</time>
      </trkpt>
      <trkpt lat="44.12849" lon="3.2064">
        <ele>704.24580083075</ele>
        <time>2017-08-19T14:18:47Z</time>
      </trkpt>
      <trkpt lat="44.1285" lon="3.20641">
        <ele>704.24580083075</ele>
        <time>2017-08-19T14:19:25Z</time>
      </trkpt>
      <trkpt lat="44.12859" lon="3.20608">
        <ele>702.72515885327</ele>
        <time>2017-08-19T14:20:12Z</time>
      </trkpt>
      <trkpt lat="44.12864" lon="3.20603">
        <ele>702.72515885327</ele>
        <time>2017-08-19T14:20:12Z</time>
      </trkpt>
      <trkpt lat="44.12865" lon="3.20603">
        <ele>702.72515885327</ele>
        <time>2017-08-19T14:20:14Z</time>
      </trkpt>
      <trkpt lat="44.12875" lon="3.20581">
        <ele>701.56783011807</ele>
        <time>2017-08-19T14:21:04Z</time>
      </trkpt>
      <trkpt lat="44.12887" lon="3.20582">
        <ele>700.83010773663</ele>
        <time>2017-08-19T14:21:18Z</time>
      </trkpt>
      <trkpt lat="44.12894" lon="3.20585">
        <ele>700.83010773663</ele>
        <time>2017-08-19T14:21:23Z</time>
      </trkpt>
      <trkpt lat="44.12909" lon="3.20588">
        <ele>700.07077944317</ele>
        <time>2017-08-19T14:21:40Z</time>
      </trkpt>
      <trkpt lat="44.12914" lon="3.20585">
        <ele>700.07077944317</ele>
        <time>2017-08-19T14:21:42Z</time>
      </trkpt>
      <trkpt lat="44.12923" lon="3.20574">
        <ele>699.33093446157</ele>
        <time>2017-08-19T14:21:59Z</time>
      </trkpt>
      <trkpt lat="44.12925" lon="3.20559">
        <ele>698.57609766666</ele>
        <time>2017-08-19T14:22:15Z</time>
      </trkpt>
      <trkpt lat="44.12919" lon="3.20543">
        <ele>698.13542623533</ele>
        <time>2017-08-19T14:22:37Z</time>
      </trkpt>
      <trkpt lat="44.12919" lon="3.20543">
        <ele>698.13542623533</ele>
        <time>2017-08-19T14:22:41Z</time>
      </trkpt>
      <trkpt lat="44.12912" lon="3.20541">
        <ele>698.13542623533</ele>
        <time>2017-08-19T14:22:46Z</time>
      </trkpt>
      <trkpt lat="44.12907" lon="3.20534">
        <ele>698.31233858965</ele>
        <time>2017-08-19T14:23:03Z</time>
      </trkpt>
      <trkpt lat="44.12906" lon="3.20532">
        <ele>698.31233858965</ele>
        <time>2017-08-19T14:23:03Z</time>
      </trkpt>
      <trkpt lat="44.12885" lon="3.2053">
        <ele>699.29928940737</ele>
        <time>2017-08-19T14:23:41Z</time>
      </trkpt>
      <trkpt lat="44.12879" lon="3.20528">
        <ele>699.29928940737</ele>
        <time>2017-08-19T14:23:41Z</time>
      </trkpt>
      <trkpt lat="44.12858" lon="3.20538">
        <ele>700.56542986966</ele>
        <time>2017-08-19T14:24:15Z</time>
      </trkpt>
      <trkpt lat="44.12853" lon="3.20538">
        <ele>700.56542986966</ele>
        <time>2017-08-19T14:24:15Z</time>
      </trkpt>
      <trkpt lat="44.12847" lon="3.20529">
        <ele>701.89283257877</ele>
        <time>2017-08-19T14:24:50Z</time>
      </trkpt>
      <trkpt lat="44.12852" lon="3.2052">
        <ele>701.89283257877</ele>
        <time>2017-08-19T14:25:23Z</time>
      </trkpt>
      <trkpt lat="44.12877" lon="3.20462">
        <ele>704.18996293506</ele>
        <time>2017-08-19T14:26:25Z</time>
      </trkpt>
      <trkpt lat="44.12887" lon="3.2045">
        <ele>706.66617242129</ele>
        <time>2017-08-19T14:26:25Z</time>
      </trkpt>
      <trkpt lat="44.12906" lon="3.20419">
        <ele>710.08828879784</ele>
        <time>2017-08-19T14:27:00Z</time>
      </trkpt>
      <trkpt lat="44.12911" lon="3.20412">
        <ele>710.08828879784</ele>
        <time>2017-08-19T14:27:15Z</time>
      </trkpt>
      <trkpt lat="44.1293" lon="3.20404">
        <ele>714.77490251511</ele>
        <time>2017-08-19T14:27:49Z</time>
      </trkpt>
      <trkpt lat="44.12932" lon="3.20393">
        <ele>714.77490251511</ele>
        <time>2017-08-19T14:28:07Z</time>
      </trkpt>
      <trkpt lat="44.12926" lon="3.20386">
        <ele>719.37427523281</ele>
        <time>2017-08-19T14:28:31Z</time>
      </trkpt>
      <trkpt lat="44.12924" lon="3.20376">
        <ele>719.37427523281</ele>
        <time>2017-08-19T14:28:57Z</time>
      </trkpt>
      <trkpt lat="44.12945" lon="3.20335">
        <ele>723.22555391736</ele>
        <time>2017-08-19T14:29:43Z</time>
      </trkpt>
      <trkpt lat="44.12985" lon="3.20295">
        <ele>726.52610898853</ele>
        <time>2017-08-19T14:31:00Z</time>
      </trkpt>
      <trkpt lat="44.12996" lon="3.20284">
        <ele>729.59038899558</ele>
        <time>2017-08-19T14:31:10Z</time>
      </trkpt>
      <trkpt lat="44.12998" lon="3.20283">
        <ele>729.59038899558</ele>
        <time>2017-08-19T14:31:10Z</time>
      </trkpt>
      <trkpt lat="44.13008" lon="3.20276">
        <ele>732.39349721657</ele>
        <time>2017-08-19T14:31:34Z</time>
      </trkpt>
      <trkpt lat="44.13014" lon="3.2028">
        <ele>732.39349721657</ele>
        <time>2017-08-19T14:31:34Z</time>
      </trkpt>
      <trkpt lat="44.13036" lon="3.2032">
        <ele>734.88458098232</ele>
        <time>2017-08-19T14:32:21Z</time>
      </trkpt>
      <trkpt lat="44.13038" lon="3.20331">
        <ele>734.88458098232</ele>
        <time>2017-08-19T14:32:50Z</time>
      </trkpt>
      <trkpt lat="44.13061" lon="3.20342">
        <ele>737.2917590505</ele>
        <time>2017-08-19T14:33:05Z</time>
      </trkpt>
      <trkpt lat="44.13085" lon="3.2036">
        <ele>739.52414694657</ele>
        <time>2017-08-19T14:33:40Z</time>
      </trkpt>
      <trkpt lat="44.13094" lon="3.20357">
        <ele>741.54165938439</ele>
        <time>2017-08-19T14:33:40Z</time>
      </trkpt>
      <trkpt lat="44.13098" lon="3.20356">
        <ele>741.54165938439</ele>
        <time>2017-08-19T14:33:43Z</time>
      </trkpt>
      <trkpt lat="44.13124" lon="3.20383">
        <ele>743.27928624646</ele>
        <time>2017-08-19T14:34:59Z</time>
      </trkpt>
      <trkpt lat="44.13132" lon="3.20383">
        <ele>743.27928624646</ele>
        <time>2017-08-19T14:34:59Z</time>
      </trkpt>
      <trkpt lat="44.1314" lon="3.20387">
        <ele>744.8654686176</ele>
        <time>2017-08-19T14:35:16Z</time>
      </trkpt>
      <trkpt lat="44.13153" lon="3.20398">
        <ele>746.2901925066</ele>
        <time>2017-08-19T14:35:23Z</time>
      </trkpt>
      <trkpt lat="44.13158" lon="3.20399">
        <ele>746.2901925066</ele>
        <time>2017-08-19T14:35:41Z</time>
      </trkpt>
      <trkpt lat="44.13167" lon="3.20394">
        <ele>747.64596634851</ele>
        <time>2017-08-19T14:36:18Z</time>
      </trkpt>
      <trkpt lat="44.13173" lon="3.20396">
        <ele>747.64596634851</ele>
        <time>2017-08-19T14:36:39Z</time>
      </trkpt>
      <trkpt lat="44.13185" lon="3.20384">
        <ele>749.06231456797</ele>
        <time>2017-08-19T14:36:48Z</time>
      </trkpt>
      <trkpt lat="44.13184" lon="3.20379">
        <ele>749.06231456797</ele>
        <time>2017-08-19T14:36:53Z</time>
      </trkpt>
      <trkpt lat="44.13182" lon="3.20376">
        <ele>749.06231456797</ele>
        <time>2017-08-19T14:36:58Z</time>
      </trkpt>
      <trkpt lat="44.1318" lon="3.20371">
        <ele>750.3420684051</ele>
        <time>2017-08-19T14:37:03Z</time>
      </trkpt>
      <trkpt lat="44.13177" lon="3.20368">
        <ele>750.3420684051</ele>
        <time>2017-08-19T14:37:08Z</time>
      </trkpt>
      <trkpt lat="44.13173" lon="3.2037">
        <ele>750.3420684051</ele>
        <time>2017-08-19T14:37:13Z</time>
      </trkpt>
      <trkpt lat="44.13171" lon="3.20369">
        <ele>751.54848109589</ele>
        <time>2017-08-19T14:37:18Z</time>
      </trkpt>
      <trkpt lat="44.13167" lon="3.20367">
        <ele>751.54848109589</ele>
        <time>2017-08-19T14:37:23Z</time>
      </trkpt>
      <trkpt lat="44.13162" lon="3.20364">
        <ele>752.63970694623</ele>
        <time>2017-08-19T14:37:28Z</time>
      </trkpt>
      <trkpt lat="44.1316" lon="3.20359">
        <ele>752.63970694623</ele>
        <time>2017-08-19T14:37:33Z</time>
      </trkpt>
      <trkpt lat="44.1316" lon="3.20355">
        <ele>752.63970694623</ele>
        <time>2017-08-19T14:37:38Z</time>
      </trkpt>
      <trkpt lat="44.13159" lon="3.20353">
        <ele>752.63970694623</ele>
        <time>2017-08-19T14:37:43Z</time>
      </trkpt>
      <trkpt lat="44.13156" lon="3.20348">
        <ele>753.60645191576</ele>
        <time>2017-08-19T14:37:48Z</time>
      </trkpt>
      <trkpt lat="44.13154" lon="3.20343">
        <ele>753.60645191576</ele>
        <time>2017-08-19T14:37:53Z</time>
      </trkpt>
      <trkpt lat="44.1315" lon="3.20338">
        <ele>754.36863184345</ele>
        <time>2017-08-19T14:37:58Z</time>
      </trkpt>
      <trkpt lat="44.1315" lon="3.20334">
        <ele>754.36863184345</ele>
        <time>2017-08-19T14:38:06Z</time>
      </trkpt>
      <trkpt lat="44.13181" lon="3.20298">
        <ele>755.12692170242</ele>
        <time>2017-08-19T14:39:15Z</time>
      </trkpt>
      <trkpt lat="44.13179" lon="3.20306">
        <ele>755.12692170242</ele>
        <time>2017-08-19T14:41:00Z</time>
      </trkpt>
      <trkpt lat="44.13191" lon="3.20312">
        <ele>754.92821875515</ele>
        <time>2017-08-19T14:41:26Z</time>
      </trkpt>
      <trkpt lat="44.13191" lon="3.20312">
        <ele>754.92821875515</ele>
        <time>2017-08-19T14:41:26Z</time>
      </trkpt>
      <trkpt lat="44.13205" lon="3.20315">
        <ele>754.62300271216</ele>
        <time>2017-08-19T14:41:33Z</time>
      </trkpt>
      <trkpt lat="44.13212" lon="3.20318">
        <ele>754.62300271216</ele>
        <time>2017-08-19T14:41:41Z</time>
      </trkpt>
      <trkpt lat="44.1323" lon="3.20343">
        <ele>754.23537132969</ele>
        <time>2017-08-19T14:42:10Z</time>
      </trkpt>
      <trkpt lat="44.1325" lon="3.20351">
        <ele>753.7736535317</ele>
        <time>2017-08-19T14:42:23Z</time>
      </trkpt>
      <trkpt lat="44.13313" lon="3.20344">
        <ele>753.8515050746</ele>
        <time>2017-08-19T14:43:46Z</time>
      </trkpt>
      <trkpt lat="44.1331" lon="3.20342">
        <ele>753.8515050746</ele>
        <time>2017-08-19T14:44:54Z</time>
      </trkpt>
      <trkpt lat="44.13294" lon="3.20339">
        <ele>754.60349800226</ele>
        <time>2017-08-19T14:45:09Z</time>
      </trkpt>
      <trkpt lat="44.13313" lon="3.20306">
        <ele>757.13288274223</ele>
        <time>2017-08-19T14:45:43Z</time>
      </trkpt>
      <trkpt lat="44.13322" lon="3.20305">
        <ele>759.25647097612</ele>
        <time>2017-08-19T14:45:53Z</time>
      </trkpt>
      <trkpt lat="44.13331" lon="3.20303">
        <ele>759.25647097612</ele>
        <time>2017-08-19T14:46:09Z</time>
      </trkpt>
      <trkpt lat="44.13338" lon="3.20288">
        <ele>761.10101213471</ele>
        <time>2017-08-19T14:46:29Z</time>
      </trkpt>
      <trkpt lat="44.13341" lon="3.20286">
        <ele>761.10101213471</ele>
        <time>2017-08-19T14:46:29Z</time>
      </trkpt>
      <trkpt lat="44.13335" lon="3.20229">
        <ele>761.6028227259</ele>
        <time>2017-08-19T14:47:31Z</time>
      </trkpt>
      <trkpt lat="44.13329" lon="3.20231">
        <ele>761.6028227259</ele>
        <time>2017-08-19T14:47:31Z</time>
      </trkpt>
      <trkpt lat="44.13322" lon="3.20202">
        <ele>761.58218329617</ele>
        <time>2017-08-19T14:47:55Z</time>
      </trkpt>
      <trkpt lat="44.13322" lon="3.20202">
        <ele>761.58218329617</ele>
        <time>2017-08-19T14:47:55Z</time>
      </trkpt>
      <trkpt lat="44.13314" lon="3.20213">
        <ele>760.74836854452</ele>
        <time>2017-08-19T14:48:02Z</time>
      </trkpt>
      <trkpt lat="44.13304" lon="3.20212">
        <ele>759.85776641562</ele>
        <time>2017-08-19T14:48:14Z</time>
      </trkpt>
      <trkpt lat="44.13306" lon="3.20193">
        <ele>758.71775277697</ele>
        <time>2017-08-19T14:48:27Z</time>
      </trkpt>
      <trkpt lat="44.13305" lon="3.20175">
        <ele>757.58301199189</ele>
        <time>2017-08-19T14:48:50Z</time>
      </trkpt>
      <trkpt lat="44.133" lon="3.20164">
        <ele>757.58301199189</ele>
        <time>2017-08-19T14:48:50Z</time>
      </trkpt>
      <trkpt lat="44.13294" lon="3.20156">
        <ele>756.19950619329</ele>
        <time>2017-08-19T14:49:01Z</time>
      </trkpt>
      <trkpt lat="44.13292" lon="3.20149">
        <ele>756.19950619329</ele>
        <time>2017-08-19T14:49:06Z</time>
      </trkpt>
      <trkpt lat="44.13263" lon="3.20122">
        <ele>755.09643495713</ele>
        <time>2017-08-19T14:49:53Z</time>
      </trkpt>
      <trkpt lat="44.13261" lon="3.20112">
        <ele>755.09643495713</ele>
        <time>2017-08-19T14:50:08Z</time>
      </trkpt>
      <trkpt lat="44.13256" lon="3.20106">
        <ele>754.38860058218</ele>
        <time>2017-08-19T14:50:27Z</time>
      </trkpt>
      <trkpt lat="44.13254" lon="3.20101">
        <ele>754.38860058218</ele>
        <time>2017-08-19T14:50:33Z</time>
      </trkpt>
      <trkpt lat="44.13249" lon="3.20079">
        <ele>754.21007280184</ele>
        <time>2017-08-19T14:51:05Z</time>
      </trkpt>
      <trkpt lat="44.13251" lon="3.20058">
        <ele>754.36650861212</ele>
        <time>2017-08-19T14:51:28Z</time>
      </trkpt>
      <trkpt lat="44.13244" lon="3.20047">
        <ele>755.26774819656</ele>
        <time>2017-08-19T14:51:43Z</time>
      </trkpt>
      <trkpt lat="44.13227" lon="3.20042">
        <ele>756.61406077949</ele>
        <time>2017-08-19T14:52:12Z</time>
      </trkpt>
      <trkpt lat="44.13224" lon="3.20044">
        <ele>756.61406077949</ele>
        <time>2017-08-19T14:52:17Z</time>
      </trkpt>
      <trkpt lat="44.13218" lon="3.20043">
        <ele>756.61406077949</ele>
        <time>2017-08-19T14:53:04Z</time>
      </trkpt>
      <trkpt lat="44.13213" lon="3.20034">
        <ele>758.44350928505</ele>
        <time>2017-08-19T14:53:32Z</time>
      </trkpt>
      <trkpt lat="44.13215" lon="3.20038">
        <ele>758.44350928505</ele>
        <time>2017-08-19T14:54:18Z</time>
      </trkpt>
      <trkpt lat="44.13216" lon="3.20038">
        <ele>758.44350928505</ele>
        <time>2017-08-19T14:54:40Z</time>
      </trkpt>
      <trkpt lat="44.13215" lon="3.20043">
        <ele>758.44350928505</ele>
        <time>2017-08-19T14:54:40Z</time>
      </trkpt>
      <trkpt lat="44.13238" lon="3.20047">
        <ele>760.22793894417</ele>
        <time>2017-08-19T14:55:15Z</time>
      </trkpt>
      <trkpt lat="44.13251" lon="3.20048">
        <ele>761.86720653226</ele>
        <time>2017-08-19T14:55:42Z</time>
      </trkpt>
      <trkpt lat="44.13259" lon="3.20047">
        <ele>761.86720653226</ele>
        <time>2017-08-19T14:55:42Z</time>
      </trkpt>
      <trkpt lat="44.13305" lon="3.20083">
        <ele>762.89422572313</ele>
        <time>2017-08-19T14:56:21Z</time>
      </trkpt>
      <trkpt lat="44.13307" lon="3.20083">
        <ele>762.89422572313</ele>
        <time>2017-08-19T14:56:23Z</time>
      </trkpt>
      <trkpt lat="44.13315" lon="3.20087">
        <ele>763.46879181345</ele>
        <time>2017-08-19T14:56:37Z</time>
      </trkpt>
      <trkpt lat="44.1332" lon="3.20089">
        <ele>763.46879181345</ele>
        <time>2017-08-19T14:56:37Z</time>
      </trkpt>
      <trkpt lat="44.13359" lon="3.20108">
        <ele>762.9187799362</ele>
        <time>2017-08-19T14:57:40Z</time>
      </trkpt>
      <trkpt lat="44.13369" lon="3.20125">
        <ele>762.26746796185</ele>
        <time>2017-08-19T14:58:18Z</time>
      </trkpt>
      <trkpt lat="44.13362" lon="3.20116">
        <ele>761.42561983429</ele>
        <time>2017-08-19T14:58:34Z</time>
      </trkpt>
      <trkpt lat="44.13383" lon="3.20096">
        <ele>760.3398835478</ele>
        <time>2017-08-19T14:59:05Z</time>
      </trkpt>
      <trkpt lat="44.13389" lon="3.20094">
        <ele>760.3398835478</ele>
        <time>2017-08-19T14:59:05Z</time>
      </trkpt>
      <trkpt lat="44.13401" lon="3.20096">
        <ele>759.04793808056</ele>
        <time>2017-08-19T14:59:16Z</time>
      </trkpt>
      <trkpt lat="44.13413" lon="3.20107">
        <ele>757.80139122437</ele>
        <time>2017-08-19T14:59:29Z</time>
      </trkpt>
      <trkpt lat="44.13438" lon="3.20096">
        <ele>756.50171312073</ele>
        <time>2017-08-19T15:00:17Z</time>
      </trkpt>
      <trkpt lat="44.13457" lon="3.20099">
        <ele>755.04327077838</ele>
        <time>2017-08-19T15:01:45Z</time>
      </trkpt>
      <trkpt lat="44.13474" lon="3.20109">
        <ele>753.544717747</ele>
        <time>2017-08-19T15:02:06Z</time>
      </trkpt>
      <trkpt lat="44.13478" lon="3.20111">
        <ele>753.544717747</ele>
        <time>2017-08-19T15:02:22Z</time>
      </trkpt>
      <trkpt lat="44.13484" lon="3.20133">
        <ele>752.05835689744</ele>
        <time>2017-08-19T15:02:55Z</time>
      </trkpt>
      <trkpt lat="44.13485" lon="3.2014">
        <ele>752.05835689744</ele>
        <time>2017-08-19T15:02:55Z</time>
      </trkpt>
      <trkpt lat="44.13496" lon="3.2015">
        <ele>750.63250304059</ele>
        <time>2017-08-19T15:03:12Z</time>
      </trkpt>
      <trkpt lat="44.135" lon="3.20158">
        <ele>750.63250304059</ele>
        <time>2017-08-19T15:03:13Z</time>
      </trkpt>
      <trkpt lat="44.13514" lon="3.20166">
        <ele>749.36927705838</ele>
        <time>2017-08-19T15:03:43Z</time>
      </trkpt>
      <trkpt lat="44.13517" lon="3.20192">
        <ele>748.34830193666</ele>
        <time>2017-08-19T15:04:11Z</time>
      </trkpt>
      <trkpt lat="44.13521" lon="3.20196">
        <ele>748.34830193666</ele>
        <time>2017-08-19T15:04:11Z</time>
      </trkpt>
      <trkpt lat="44.13586" lon="3.20202">
        <ele>748.04606058335</ele>
        <time>2017-08-19T15:05:33Z</time>
      </trkpt>
      <trkpt lat="44.13594" lon="3.2021">
        <ele>747.83543245084</ele>
        <time>2017-08-19T15:05:33Z</time>
      </trkpt>
      <trkpt lat="44.136" lon="3.20224">
        <ele>747.82672781578</ele>
        <time>2017-08-19T15:05:49Z</time>
      </trkpt>
      <trkpt lat="44.13598" lon="3.20229">
        <ele>747.82672781578</ele>
        <time>2017-08-19T15:05:49Z</time>
      </trkpt>
      <trkpt lat="44.13614" lon="3.20257">
        <ele>748.45292293058</ele>
        <time>2017-08-19T15:06:24Z</time>
      </trkpt>
      <trkpt lat="44.13619" lon="3.20259">
        <ele>748.45292293058</ele>
        <time>2017-08-19T15:06:28Z</time>
      </trkpt>
      <trkpt lat="44.13648" lon="3.20274">
        <ele>750.07005239673</ele>
        <time>2017-08-19T15:07:22Z</time>
      </trkpt>
      <trkpt lat="44.13701" lon="3.20297">
        <ele>754.244495578</ele>
        <time>2017-08-19T15:08:00Z</time>
      </trkpt>
      <trkpt lat="44.13706" lon="3.20301">
        <ele>754.244495578</ele>
        <time>2017-08-19T15:08:00Z</time>
      </trkpt>
      <trkpt lat="44.13749" lon="3.20323">
        <ele>758.81745487585</ele>
        <time>2017-08-19T15:08:46Z</time>
      </trkpt>
      <trkpt lat="44.13769" lon="3.20367">
        <ele>763.44487310415</ele>
        <time>2017-08-19T15:10:18Z</time>
      </trkpt>
    </trkseg>
  </trk>
</gpx>